Time;durP1;ratioP1;P1;durP2;ratioP2;P2;SDS_P1;SDS_P2;PMS_P1;PMS_P2;Temp;Humidity;BMP_temperature;BMP_pressure;BME280_temperature;BME280_humidity;BME280_pressure;Samples;Min_cycle;Max_cycle;Signal;HPM_P1;HPM_P2
2023/03/22 00:00:45;;;;;;;19.40;13.25;;;;;;;15.33;48.69;100258.84;5095090;28;20028;-56
2023/03/22 00:03:10;;;;;;;18.15;12.82;;;;;;;15.28;48.89;100245.81;5089625;28;20102;-56
2023/03/22 00:05:36;;;;;;;19.65;12.73;;;;;;;15.25;49.11;100251.25;5082706;28;20047;-56
2023/03/22 00:08:05;;;;;;;18.38;12.60;;;;;;;15.33;48.89;100254.41;5084828;28;20032;-56
2023/03/22 00:10:32;;;;;;;19.38;13.05;;;;;;;15.33;49.02;100246.47;5094045;28;20101;-56
2023/03/22 00:12:58;;;;;;;18.40;12.40;;;;;;;15.31;49.08;100248.31;5094471;28;20030;-56
2023/03/22 00:15:23;;;;;;;22.20;14.63;;;;;;;15.35;49.00;100249.91;5093131;28;20040;-57
2023/03/22 00:17:49;;;;;;;20.48;14.07;;;;;;;15.39;49.09;100245.34;5094998;28;20039;-55
2023/03/22 00:20:16;;;;;;;21.33;13.77;;;;;;;15.33;49.30;100242.97;5092300;28;20031;-56
2023/03/22 00:22:42;;;;;;;23.08;14.18;;;;;;;15.36;49.01;100230.47;5093715;28;20063;-57
2023/03/22 00:25:09;;;;;;;20.02;13.80;;;;;;;15.40;49.00;100236.47;5094860;28;20028;-56
2023/03/22 00:27:35;;;;;;;21.52;14.32;;;;;;;15.38;49.24;100233.88;5093528;28;20042;-56
2023/03/22 00:30:00;;;;;;;21.58;14.27;;;;;;;15.40;49.08;100237.34;5092832;28;20040;-57
2023/03/22 00:32:26;;;;;;;23.98;14.85;;;;;;;15.42;49.11;100232.81;5088865;28;20036;-57
2023/03/22 00:34:51;;;;;;;20.73;14.45;;;;;;;15.42;49.11;100235.47;5080504;28;20101;-57
2023/03/22 00:37:17;;;;;;;18.70;13.43;;;;;;;15.44;49.07;100227.44;5092788;28;20032;-57
2023/03/22 00:39:43;;;;;;;21.95;13.98;;;;;;;15.46;49.21;100231.75;5093574;28;20048;-55
2023/03/22 00:42:09;;;;;;;23.83;16.27;;;;;;;15.39;49.42;100242.69;5094421;28;20436;-55
2023/03/22 00:44:34;;;;;;;21.98;14.85;;;;;;;15.35;49.53;100236.66;5093214;28;20128;-55
2023/03/22 00:47:00;;;;;;;22.92;15.32;;;;;;;15.37;49.54;100234.81;5094303;28;20468;-55
2023/03/22 00:49:26;;;;;;;20.90;14.90;;;;;;;15.41;49.44;100230.25;5092761;28;20043;-54
2023/03/22 00:51:52;;;;;;;23.20;15.10;;;;;;;15.43;49.55;100231.03;5092438;28;20097;-54
2023/03/22 00:54:18;;;;;;;22.35;14.98;;;;;;;15.47;49.45;100228.19;5093029;28;20036;-56
2023/03/22 00:56:44;;;;;;;22.48;15.85;;;;;;;15.49;49.37;100223.69;5075121;28;20097;-55
2023/03/22 00:59:11;;;;;;;22.75;15.82;;;;;;;15.47;49.51;100217.59;5076101;28;20105;-55
2023/03/22 01:01:37;;;;;;;22.70;15.05;;;;;;;15.43;49.61;100213.34;5080992;28;20632;-55
2023/03/22 01:04:04;;;;;;;21.17;14.70;;;;;;;15.43;49.63;100217.78;5086173;28;20035;-56
2023/03/22 01:06:31;;;;;;;23.48;16.73;;;;;;;15.41;49.80;100222.31;5079811;28;20093;-56
2023/03/22 01:08:57;;;;;;;24.48;17.15;;;;;;;15.41;49.84;100217.88;5087343;28;20407;-56
2023/03/22 01:11:23;;;;;;;20.70;15.02;;;;;;;15.42;49.83;100209.00;5091453;28;20036;-54
2023/03/22 01:13:49;;;;;;;24.55;15.20;;;;;;;15.42;49.71;100209.00;5093097;28;20471;-55
2023/03/22 01:16:15;;;;;;;23.27;15.27;;;;;;;15.42;49.89;100203.69;5092645;28;20071;-55
2023/03/22 01:18:40;;;;;;;21.83;15.13;;;;;;;15.40;49.96;100200.28;5093590;28;20024;-55
2023/03/22 01:21:06;;;;;;;25.80;16.40;;;;;;;15.41;49.97;100188.75;5090102;28;20062;-55
2023/03/22 01:23:31;;;;;;;23.35;16.45;;;;;;;15.42;50.04;100187.81;5090916;28;20188;-55
2023/03/22 01:25:57;;;;;;;25.27;16.88;;;;;;;15.40;50.16;100184.41;5093555;28;20028;-55
2023/03/22 01:28:22;;;;;;;24.08;16.08;;;;;;;15.40;50.12;100176.47;5067812;28;20028;-56
2023/03/22 01:30:49;;;;;;;27.13;18.48;;;;;;;15.43;50.23;100176.28;5081236;28;20046;-55
2023/03/22 01:33:15;;;;;;;24.70;16.80;;;;;;;15.45;50.17;100173.59;5091837;28;20111;-56
2023/03/22 01:35:40;;;;;;;23.30;16.65;;;;;;;15.39;50.35;100169.41;5090414;28;20115;-55
2023/03/22 01:38:06;;;;;;;29.02;18.05;;;;;;;15.40;50.37;100162.31;5091509;28;20455;-55
2023/03/22 01:40:32;;;;;;;25.38;17.27;;;;;;;15.39;50.59;100158.81;5090977;28;20048;-55
2023/03/22 01:42:57;;;;;;;24.63;17.35;;;;;;;15.39;50.53;100156.19;5092304;28;20070;-56
2023/03/22 01:45:34;;;;;;;28.40;19.17;;;;;;;15.37;50.76;100158.06;5093115;28;21493;-55
2023/03/22 01:48:25;;;;;;;30.33;20.45;;;;;;;15.35;50.74;100157.25;5092666;28;20529;-54
2023/03/22 01:51:01;;;;;;;29.77;19.27;;;;;;;15.35;51.02;100148.44;5083689;28;20044;-55
2023/03/22 01:53:30;;;;;;;32.95;22.17;;;;;;;15.31;51.01;100145.06;5092237;28;20089;-55
2023/03/22 01:55:57;;;;;;;35.67;23.20;;;;;;;15.32;50.82;100149.47;5090848;28;20416;-55
2023/03/22 01:58:23;;;;;;;31.23;21.45;;;;;;;15.36;50.91;100144.88;5079337;28;20028;-56
2023/03/22 02:00:50;;;;;;;68.25;34.42;;;;;;;15.37;50.82;100142.16;5088607;28;20047;-55
2023/03/22 02:03:24;;;;;;;57.15;32.30;;;;;;;15.34;51.35;100142.31;5091568;28;20024;-55
2023/03/22 02:05:51;;;;;;;48.03;29.10;;;;;;;15.38;50.93;100138.59;5092158;28;20134;-55
2023/03/22 02:08:16;;;;;;;84.53;41.80;;;;;;;15.39;51.08;100140.28;5091987;28;20165;-55
2023/03/22 02:10:42;;;;;;;55.38;31.50;;;;;;;15.37;51.09;100136.88;5084942;28;20114;-55
2023/03/22 02:13:16;;;;;;;42.60;26.52;;;;;;;15.39;51.06;100131.50;5082348;28;20039;-54
2023/03/22 02:16:06;;;;;;;37.50;26.95;;;;;;;15.40;51.42;100139.38;5089307;28;20528;-55
2023/03/22 02:18:43;;;;;;;34.20;21.60;;;;;;;15.38;51.54;100132.44;5092648;28;20085;-55
2023/03/22 02:21:48;;;;;;;28.50;20.88;;;;;;;15.38;51.35;100132.44;5086912;28;20059;-56
2023/03/22 02:24:54;;;;;;;30.67;21.10;;;;;;;15.38;51.22;100127.13;5083469;28;20120;-57
2023/03/22 02:27:31;;;;;;;33.35;22.17;;;;;;;15.32;51.39;100119.47;5010949;28;20030;-56
2023/03/22 02:30:21;;;;;;;29.23;20.58;;;;;;;15.33;51.61;100124.72;5081183;28;20534;-55
2023/03/22 02:32:54;;;;;;;34.35;22.42;;;;;;;15.29;51.88;100120.47;5093450;28;20038;-56
2023/03/22 02:35:27;;;;;;;30.95;20.60;;;;;;;15.26;51.89;100118.81;5086928;28;20029;-56
2023/03/22 02:37:53;;;;;;;31.00;20.10;;;;;;;15.32;51.58;100123.00;5093492;28;20028;-56
2023/03/22 02:40:32;;;;;;;29.80;19.48;;;;;;;15.23;52.20;100121.59;5093454;28;20368;-55
2023/03/22 02:43:25;;;;;;;30.65;20.38;;;;;;;15.32;51.97;100117.69;5073796;28;20032;-54
2023/03/22 02:46:16;;;;;;;29.58;19.98;;;;;;;15.19;52.43;100121.81;5078799;28;20493;-54
2023/03/22 02:48:50;;;;;;;30.83;20.08;;;;;;;15.26;51.87;100121.47;5092849;28;20415;-55
2023/03/22 02:51:31;;;;;;;29.95;19.10;;;;;;;15.25;52.29;100121.56;5090011;28;20123;-55
2023/03/22 02:54:03;;;;;;;29.15;19.00;;;;;;;15.28;51.99;100116.97;5080388;28;20078;-57
2023/03/22 02:56:41;;;;;;;29.88;20.27;;;;;;;15.31;51.96;100115.97;5088312;28;20089;-56
2023/03/22 02:59:10;;;;;;;30.20;19.75;;;;;;;15.36;51.81;100124.56;5094764;28;20096;-56
2023/03/22 03:01:44;;;;;;;29.80;19.73;;;;;;;15.34;51.98;100114.97;5095430;28;20024;-53
2023/03/22 03:04:17;;;;;;;32.58;21.25;;;;;;;15.23;52.23;100120.75;5095615;28;20043;-55
2023/03/22 03:06:46;;;;;;;30.33;20.02;;;;;;;15.28;52.15;100116.13;5082701;28;20111;-54
2023/03/22 03:09:17;;;;;;;30.05;20.80;;;;;;;15.25;52.43;100116.25;5095216;28;20032;-55
2023/03/22 03:11:48;;;;;;;31.23;20.27;;;;;;;15.25;52.25;100111.81;5096743;28;20032;-56
2023/03/22 03:14:26;;;;;;;28.05;19.48;;;;;;;15.27;52.50;100106.44;5095452;28;20051;-54
2023/03/22 03:17:19;;;;;;;32.05;21.52;;;;;;;15.12;53.14;100104.47;5096096;28;20024;-55
2023/03/22 03:20:07;;;;;;;32.45;20.35;;;;;;;15.22;52.61;100108.44;5096736;28;20494;-55
2023/03/22 03:23:04;;;;;;;31.10;20.73;;;;;;;15.20;52.81;100102.34;5095412;28;20032;-55
2023/03/22 03:25:42;;;;;;;29.33;19.67;;;;;;;15.18;52.83;100101.56;5096088;28;20044;-56
2023/03/22 03:28:10;;;;;;;29.25;19.98;;;;;;;15.19;52.72;100101.50;5095784;28;20036;-55
2023/03/22 03:31:00;;;;;;;35.25;22.23;;;;;;;15.22;53.20;100095.22;5096672;28;20024;-55
2023/03/22 03:33:27;;;;;;;34.08;22.02;;;;;;;15.22;52.89;100100.50;5095539;28;20043;-55
2023/03/22 03:36:01;;;;;;;29.35;20.10;;;;;;;15.20;53.02;100097.94;5093729;28;20040;-55
2023/03/22 03:38:32;;;;;;;32.45;20.48;;;;;;;15.11;53.78;100100.13;5096903;28;20035;-55
2023/03/22 03:41:15;;;;;;;38.00;21.70;;;;;;;15.09;54.09;100094.06;5096379;28;20056;-55
2023/03/22 03:43:41;;;;;;;;;;;;;;;15.10;54.67;100103.72;5096998;28;20063;-55
2023/03/22 03:46:07;;;;;;;30.17;19.67;;;;;;;15.09;53.49;100100.19;5095422;28;19920;-55
2023/03/22 03:48:36;;;;;;;32.88;20.98;;;;;;;15.08;53.74;100100.25;5096161;28;20040;-56
2023/03/22 03:51:02;;;;;;;31.48;20.23;;;;;;;15.07;53.92;100102.03;5095308;28;20040;-55
2023/03/22 03:53:29;;;;;;;33.53;21.95;;;;;;;15.12;53.92;100107.13;5095190;28;20032;-55
2023/03/22 03:55:55;;;;;;;36.15;23.90;;;;;;;15.20;53.77;100102.34;5095973;28;20114;-55
2023/03/22 03:58:20;;;;;;;33.25;21.95;;;;;;;15.17;54.01;100097.22;5095418;28;20467;-55
2023/03/22 04:00:49;;;;;;;31.92;20.60;;;;;;;15.11;54.30;100094.84;5096269;28;20119;-56
2023/03/22 04:03:15;;;;;;;33.25;22.02;;;;;;;15.14;54.22;100094.69;5096095;28;20113;-55
2023/03/22 04:05:41;;;;;;;35.33;23.38;;;;;;;15.13;54.28;100098.28;5096394;28;20474;-56
2023/03/22 04:08:06;;;;;;;33.63;22.98;;;;;;;15.13;54.51;100096.50;5094138;28;20035;-53
2023/03/22 04:10:32;;;;;;;36.20;22.75;;;;;;;15.11;54.51;100092.19;5095553;28;20500;-56
2023/03/22 04:12:57;;;;;;;35.80;22.75;;;;;;;15.08;54.79;100087.91;5073714;28;20070;-55
2023/03/22 04:15:23;;;;;;;36.80;24.20;;;;;;;15.11;54.74;100081.59;5074443;28;20036;-55
2023/03/22 04:17:49;;;;;;;41.78;27.63;;;;;;;15.13;54.83;100079.75;5080516;28;20048;-55
2023/03/22 04:20:16;;;;;;;38.13;25.73;;;;;;;15.12;55.07;100078.91;5095605;28;20036;-55
2023/03/22 04:22:43;;;;;;;39.55;25.20;;;;;;;15.08;55.14;100077.31;5085485;28;20033;-55
2023/03/22 04:25:13;;;;;;;37.22;24.58;;;;;;;14.93;55.53;100083.28;5078113;28;20089;-56
2023/03/22 04:27:40;;;;;;;37.15;23.70;;;;;;;14.95;55.57;100077.00;5095680;28;20051;-56
2023/03/22 04:30:09;;;;;;;35.80;23.63;;;;;;;14.95;55.63;100070.84;5095688;28;20032;-54
2023/03/22 04:32:36;;;;;;;39.03;24.40;;;;;;;14.96;55.70;100069.91;5095304;28;20494;-56
2023/03/22 04:35:02;;;;;;;34.47;23.20;;;;;;;14.95;55.71;100077.00;5093247;28;20090;-56
2023/03/22 04:37:30;;;;;;;36.63;23.70;;;;;;;14.94;55.96;100074.44;5093181;28;20077;-56
2023/03/22 04:39:57;;;;;;;37.92;24.58;;;;;;;14.97;55.75;100075.16;5095437;28;20063;-57
2023/03/22 04:42:23;;;;;;;35.45;23.67;;;;;;;14.98;55.77;100071.56;5095585;28;20105;-55
2023/03/22 04:44:48;;;;;;;33.42;23.00;;;;;;;15.02;55.89;100072.28;5095312;28;20035;-56
2023/03/22 04:47:14;;;;;;;38.20;24.85;;;;;;;15.02;55.75;100065.22;5094511;28;20423;-56
2023/03/22 04:49:40;;;;;;;37.65;24.33;;;;;;;14.99;55.92;100062.69;5093916;28;20055;-57
2023/03/22 04:52:06;;;;;;;38.33;25.77;;;;;;;15.00;55.97;100061.78;5095030;28;20101;-56
2023/03/22 04:54:31;;;;;;;42.55;26.75;;;;;;;15.02;55.96;100059.06;5094828;28;20460;-56
2023/03/22 04:56:57;;;;;;;39.60;25.90;;;;;;;15.07;56.05;100059.72;5076303;28;20483;-56
2023/03/22 04:59:22;;;;;;;38.95;23.88;;;;;;;15.05;55.96;100056.28;5092756;28;20065;-56
2023/03/22 05:01:50;;;;;;;37.88;24.83;;;;;;;15.09;55.95;100046.44;5093828;28;20043;-55
2023/03/22 05:04:17;;;;;;;38.42;24.40;;;;;;;15.09;55.95;100047.28;5094909;28;20043;-54
2023/03/22 05:06:43;;;;;;;41.15;24.60;;;;;;;15.08;56.07;100052.63;5092439;28;20089;-55
2023/03/22 05:09:10;;;;;;;38.67;24.67;;;;;;;15.07;56.08;100045.63;5092367;28;20035;-55
2023/03/22 05:11:36;;;;;;;38.10;24.42;;;;;;;15.09;56.08;100031.41;5092306;28;20029;-56
2023/03/22 05:14:02;;;;;;;36.90;23.73;;;;;;;15.11;56.00;100033.97;5093500;28;20039;-57
2023/03/22 05:16:28;;;;;;;39.75;25.38;;;;;;;15.17;55.92;100039.00;5094689;28;20038;-58
2023/03/22 05:18:53;;;;;;;40.97;25.67;;;;;;;15.20;55.91;100028.25;5094413;28;20034;-57
2023/03/22 05:21:26;;;;;;;36.25;23.63;;;;;;;15.25;55.77;100028.91;5093891;28;20119;-58
2023/03/22 05:23:53;;;;;;;35.55;23.42;;;;;;;15.26;55.67;100027.97;5094672;28;20028;-58
2023/03/22 05:26:23;;;;;;;40.75;25.42;;;;;;;15.21;55.92;100024.69;5093436;28;20458;-57
2023/03/22 05:28:50;;;;;;;38.03;24.73;;;;;;;15.28;55.75;100024.34;5094444;28;20079;-58
2023/03/22 05:31:16;;;;;;;40.28;25.13;;;;;;;15.24;55.91;100025.41;5093200;28;20047;-57
2023/03/22 05:33:42;;;;;;;37.83;24.48;;;;;;;15.28;55.74;100021.69;5092659;28;20044;-58
2023/03/22 05:36:10;;;;;;;40.58;25.23;;;;;;;15.28;55.84;100032.28;5092992;28;20040;-58
2023/03/22 05:38:35;;;;;;;40.92;26.65;;;;;;;15.30;55.96;100028.69;5094249;28;20066;-59
2023/03/22 05:41:01;;;;;;;43.60;26.10;;;;;;;15.30;55.80;100031.34;5092876;28;20139;-58
2023/03/22 05:43:26;;;;;;;42.30;26.50;;;;;;;15.30;55.89;100029.56;5092907;28;20040;-57
2023/03/22 05:45:52;;;;;;;39.53;26.08;;;;;;;15.33;55.95;100034.72;5093940;28;20035;-58
2023/03/22 05:48:17;;;;;;;45.22;27.90;;;;;;;15.33;55.98;100028.56;5093894;28;20521;-58
2023/03/22 05:50:43;;;;;;;41.25;25.58;;;;;;;15.30;55.96;100023.41;5091332;28;20032;-57
2023/03/22 05:53:10;;;;;;;40.38;25.50;;;;;;;15.36;55.86;100024.00;5094060;28;20082;-57
2023/03/22 05:55:36;;;;;;;40.67;25.50;;;;;;;15.45;55.77;100034.13;5091957;28;20498;-57
2023/03/22 05:58:03;;;;;;;40.08;26.50;;;;;;;15.46;55.67;100025.25;5093125;28;20028;-59
2023/03/22 06:00:30;;;;;;;38.13;26.15;;;;;;;15.42;55.87;100028.97;5093391;28;20040;-56
2023/03/22 06:02:59;;;;;;;38.45;25.17;;;;;;;15.42;55.93;100023.69;5106782;28;20122;-57
2023/03/22 06:05:25;;;;;;;46.20;28.08;;;;;;;15.43;55.84;100022.75;5092441;28;20066;-58
2023/03/22 06:07:50;;;;;;;37.25;24.55;;;;;;;15.47;55.77;100015.50;5090844;28;20051;-58
2023/03/22 06:10:17;;;;;;;40.53;25.38;;;;;;;15.52;55.67;100013.53;5091230;28;20032;-58
2023/03/22 06:12:42;;;;;;;38.88;25.30;;;;;;;15.49;55.81;100009.22;5090041;28;20047;-58
2023/03/22 06:15:09;;;;;;;43.28;27.02;;;;;;;15.46;56.03;100021.75;5085398;28;20036;-58
2023/03/22 06:17:35;;;;;;;40.63;26.60;;;;;;;15.46;55.89;100011.16;5075057;28;20062;-57
2023/03/22 06:20:08;;;;;;;38.47;25.63;;;;;;;15.52;55.78;100022.31;5092492;28;20064;-57
2023/03/22 06:22:34;;;;;;;36.40;25.88;;;;;;;15.50;55.88;100025.97;5092596;28;20123;-58
2023/03/22 06:25:00;;;;;;;43.55;27.55;;;;;;;15.54;55.91;100027.53;5085306;28;20044;-57
2023/03/22 06:27:26;;;;;;;44.08;27.63;;;;;;;15.48;56.02;100027.84;5091726;28;20104;-57
2023/03/22 06:29:53;;;;;;;38.72;25.98;;;;;;;15.50;55.99;100036.56;5091623;28;20107;-58
2023/03/22 06:32:22;;;;;;;42.42;27.45;;;;;;;15.51;55.84;100036.47;5090281;28;20447;-58
2023/03/22 06:34:48;;;;;;;39.58;25.50;;;;;;;15.49;55.99;100035.69;5095085;28;20036;-58
2023/03/22 06:37:15;;;;;;;38.33;25.08;;;;;;;15.37;56.15;100031.00;5096334;28;20032;-57
2023/03/22 06:39:40;;;;;;;41.33;26.33;;;;;;;15.44;56.14;100032.44;5096339;28;20123;-57
2023/03/22 06:42:06;;;;;;;40.25;25.75;;;;;;;15.36;56.31;100034.56;5096619;28;20063;-57
2023/03/22 06:44:31;;;;;;;40.58;25.50;;;;;;;15.32;56.42;100032.13;5096212;28;20107;-58
2023/03/22 06:46:57;;;;;;;40.85;26.33;;;;;;;15.19;56.69;100037.13;5096208;28;20032;-58
2023/03/22 06:49:22;;;;;;;41.25;26.80;;;;;;;15.30;56.48;100040.13;5097383;28;20040;-58
2023/03/22 06:51:48;;;;;;;41.08;27.15;;;;;;;15.35;56.47;100031.97;5097420;28;20051;-57
2023/03/22 06:54:15;;;;;;;41.78;25.88;;;;;;;15.40;56.41;100043.19;5097512;28;20029;-57
2023/03/22 06:56:41;;;;;;;41.25;26.63;;;;;;;15.39;56.38;100037.06;5096308;28;20105;-58
2023/03/22 06:59:06;;;;;;;45.50;28.52;;;;;;;15.37;56.54;100035.44;5097115;28;20459;-58
2023/03/22 07:01:31;;;;;;;41.42;26.48;;;;;;;15.41;56.50;100042.28;5096136;28;20058;-57
2023/03/22 07:03:57;;;;;;;45.70;28.90;;;;;;;15.23;56.82;100044.00;5097417;28;20032;-57
2023/03/22 07:06:22;;;;;;;40.20;25.80;;;;;;;15.13;57.03;100043.56;5097318;28;20032;-57
2023/03/22 07:08:48;;;;;;;42.95;27.55;;;;;;;15.16;57.09;100048.72;5097242;28;20391;-57
2023/03/22 07:11:14;;;;;;;44.75;27.75;;;;;;;15.20;57.06;100038.84;5096977;28;20028;-57
2023/03/22 07:13:39;;;;;;;45.28;27.45;;;;;;;15.00;57.62;100047.69;5096911;28;20032;-57
2023/03/22 07:16:05;;;;;;;47.00;30.05;;;;;;;15.08;57.58;100039.41;5096844;28;20059;-57
2023/03/22 07:18:31;;;;;;;44.05;27.30;;;;;;;15.18;57.13;100035.41;5096780;28;20028;-56
2023/03/22 07:20:56;;;;;;;44.63;26.38;;;;;;;15.37;57.07;100031.00;5078789;28;20036;-57
2023/03/22 07:23:22;;;;;;;46.38;28.83;;;;;;;15.56;56.70;100024.81;5096675;28;20047;-58
2023/03/22 07:25:48;;;;;;;43.97;26.98;;;;;;;15.61;56.67;100033.41;5096829;28;20024;-58
2023/03/22 07:28:14;;;;;;;43.65;27.27;;;;;;;15.71;56.41;100024.97;5096742;28;20032;-57
2023/03/22 07:30:40;;;;;;;40.42;25.58;;;;;;;15.81;56.24;100025.38;5095518;28;20515;-58
2023/03/22 07:33:07;;;;;;;42.25;26.45;;;;;;;15.91;56.13;100025.78;5096671;28;20035;-58
2023/03/22 07:35:34;;;;;;;40.78;25.27;;;;;;;15.92;55.98;100031.03;5078469;28;20040;-58
2023/03/22 07:38:00;;;;;;;41.00;24.85;;;;;;;15.94;55.96;100026.50;5096375;28;20059;-58
2023/03/22 07:40:26;;;;;;;42.40;26.20;;;;;;;15.86;56.43;100022.50;5096380;28;20084;-57
2023/03/22 07:42:51;;;;;;;41.97;25.13;;;;;;;16.08;55.96;100028.47;5096162;28;20040;-56
2023/03/22 07:45:19;;;;;;;36.47;23.80;;;;;;;16.16;55.64;100020.16;5095714;28;20028;-57
2023/03/22 07:47:44;;;;;;;43.05;26.13;;;;;;;16.17;55.75;100028.00;5096198;28;20107;-57
2023/03/22 07:50:12;;;;;;;41.65;24.58;;;;;;;16.26;55.53;100024.03;5095103;28;20024;-58
2023/03/22 07:52:38;;;;;;;39.20;24.73;;;;;;;16.34;55.36;100023.63;5095087;28;20042;-58
2023/03/22 07:55:04;;;;;;;41.10;25.58;;;;;;;16.45;55.14;100030.09;5096203;28;20060;-58
2023/03/22 07:57:30;;;;;;;40.13;24.58;;;;;;;16.58;54.94;100025.03;5094716;28;20122;-58
2023/03/22 07:59:55;;;;;;;40.35;25.70;;;;;;;16.66;54.91;100028.13;5096301;28;20036;-58
2023/03/22 08:02:21;;;;;;;36.63;23.52;;;;;;;16.74;54.71;100020.66;5096227;28;20044;-58
2023/03/22 08:04:47;;;;;;;41.58;26.77;;;;;;;16.93;54.61;100023.19;5095969;28;20085;-57
2023/03/22 08:07:14;;;;;;;39.58;26.02;;;;;;;17.20;53.97;100017.34;5095772;28;20032;-57
2023/03/22 08:09:40;;;;;;;40.72;23.33;;;;;;;17.31;53.79;100016.75;5094816;28;20040;-57
2023/03/22 08:12:06;;;;;;;35.97;22.65;;;;;;;17.48;53.51;100009.56;5094622;28;20390;-57
2023/03/22 08:14:33;;;;;;;39.42;24.98;;;;;;;17.79;53.09;100018.47;5094645;28;20024;-58
2023/03/22 08:16:59;;;;;;;35.40;23.27;;;;;;;17.84;52.97;100024.41;5094803;28;20036;-58
2023/03/22 08:19:24;;;;;;;40.00;23.92;;;;;;;17.82;52.93;100018.31;5095853;28;20537;-58
2023/03/22 08:21:50;;;;;;;41.85;26.30;;;;;;;17.94;52.68;100003.44;5077859;28;20456;-58
2023/03/22 08:24:15;;;;;;;34.30;21.77;;;;;;;17.98;52.40;100007.66;5095538;28;20032;-58
2023/03/22 08:26:41;;;;;;;33.33;21.33;;;;;;;17.94;52.76;100006.97;5094351;28;20062;-57
2023/03/22 08:29:07;;;;;;;34.75;22.65;;;;;;;18.01;52.70;100003.97;5094383;28;20059;-58
2023/03/22 08:31:32;;;;;;;36.60;22.48;;;;;;;17.94;52.58;100006.97;5095576;28;20123;-58
2023/03/22 08:33:58;;;;;;;34.60;22.00;;;;;;;18.07;52.41;100007.09;5077404;28;20051;-58
2023/03/22 08:36:23;;;;;;;26.05;16.90;;;;;;;18.02;52.30;100005.66;5095554;28;20040;-58
2023/03/22 08:38:49;;;;;;;33.55;19.95;;;;;;;18.11;52.29;100013.97;5094097;28;20031;-58
2023/03/22 08:41:14;;;;;;;33.53;21.58;;;;;;;18.02;52.46;100008.31;5094014;28;20059;-59
2023/03/22 08:43:41;;;;;;;28.33;19.23;;;;;;;18.01;52.35;100011.94;5094051;28;20418;-58
2023/03/22 08:46:07;;;;;;;31.02;18.40;;;;;;;17.98;52.39;100010.31;5095166;28;20422;-58
2023/03/22 08:48:34;;;;;;;26.75;17.02;;;;;;;18.07;52.18;100007.09;5095044;28;20070;-58
2023/03/22 08:51:00;;;;;;;28.60;18.05;;;;;;;18.26;51.78;100004.22;5093704;28;20029;-58
2023/03/22 08:53:27;;;;;;;27.02;17.63;;;;;;;18.45;51.42;100010.16;5093833;28;20081;-58
2023/03/22 08:55:53;;;;;;;29.27;18.38;;;;;;;18.41;51.41;100013.94;5094284;28;20399;-58
2023/03/22 08:58:18;;;;;;;31.58;18.60;;;;;;;18.24;51.85;100011.44;5095321;28;20040;-58
2023/03/22 09:00:45;;;;;;;29.95;19.10;;;;;;;18.16;52.12;100011.03;5095209;28;20028;-58
2023/03/22 09:03:11;;;;;;;28.48;18.38;;;;;;;18.13;52.07;99998.78;5095047;28;20036;-57
2023/03/22 09:05:37;;;;;;;27.50;17.17;;;;;;;18.30;51.68;100000.44;5094900;28;20031;-58
2023/03/22 09:08:04;;;;;;;27.70;17.75;;;;;;;18.18;51.80;99995.84;5094756;28;20031;-58
2023/03/22 09:10:30;;;;;;;25.75;17.35;;;;;;;18.17;51.89;99997.66;5093280;28;20036;-58
2023/03/22 09:12:56;;;;;;;25.00;16.67;;;;;;;18.04;52.19;99991.34;5094807;28;20038;-58
2023/03/22 09:15:21;;;;;;;25.15;17.08;;;;;;;18.05;52.09;99993.06;5094571;28;20036;-57
2023/03/22 09:17:47;;;;;;;26.00;16.83;;;;;;;17.87;52.34;99995.00;5094537;28;20040;-58
2023/03/22 09:20:12;;;;;;;26.52;16.65;;;;;;;18.02;52.17;100001.19;5094602;28;20463;-58
2023/03/22 09:22:38;;;;;;;23.42;15.35;;;;;;;18.11;51.99;99987.41;5093408;28;20111;-58
2023/03/22 09:25:03;;;;;;;23.60;15.32;;;;;;;18.35;51.33;100001.03;5093195;28;20468;-58
2023/03/22 09:27:29;;;;;;;28.05;16.67;;;;;;;18.32;51.66;99993.22;5094501;28;20032;-58
2023/03/22 09:29:55;;;;;;;27.33;16.83;;;;;;;18.41;51.54;99992.66;5093195;28;20024;-58
2023/03/22 09:32:21;;;;;;;25.02;16.63;;;;;;;18.49;51.03;99991.34;5094126;28;20040;-58
2023/03/22 09:34:46;;;;;;;22.42;15.20;;;;;;;18.77;50.89;99993.22;5094406;28;20115;-58
2023/03/22 09:37:13;;;;;;;24.90;16.23;;;;;;;18.82;50.57;99996.44;5094311;28;20032;-58
2023/03/22 09:39:40;;;;;;;27.67;16.70;;;;;;;18.97;50.13;99986.66;5093973;28;20056;-59
2023/03/22 09:42:33;;;;;;;22.85;15.15;;;;;;;19.30;49.77;99979.19;5094327;28;20028;-60
2023/03/22 09:45:01;;;;;;;24.30;15.02;;;;;;;19.54;49.35;99978.56;5094047;28;20036;-57
2023/03/22 09:47:36;;;;;;;21.70;15.25;;;;;;;19.65;49.04;99994.75;5093926;28;20040;-58
2023/03/22 09:50:24;;;;;;;25.85;15.63;;;;;;;19.32;49.39;99987.09;5093851;28;20028;-58
2023/03/22 09:52:50;;;;;;;21.17;14.52;;;;;;;19.51;49.50;99986.75;5094168;28;20427;-58
2023/03/22 09:55:45;;;;;;;22.83;15.35;;;;;;;19.07;48.75;99988.66;5093977;28;20431;-58
2023/03/22 09:58:29;;;;;;;19.50;13.00;;;;;;;19.21;49.51;99985.09;5094012;28;20020;-57
2023/03/22 10:01:00;;;;;;;21.63;13.77;;;;;;;19.45;49.34;99970.22;5093961;28;20071;-57
2023/03/22 10:03:50;;;;;;;22.63;14.20;;;;;;;19.33;49.04;99968.34;5094022;28;20119;-58
2023/03/22 10:06:20;;;;;;;20.13;13.60;;;;;;;19.63;48.71;99965.53;5093813;28;20047;-56
2023/03/22 10:09:18;;;;;;;23.00;14.95;;;;;;;20.12;48.13;99966.75;5093425;28;20028;-57
2023/03/22 10:11:48;;;;;;;18.55;13.02;;;;;;;20.55;47.09;99967.34;5093775;28;20028;-58
2023/03/22 10:14:34;;;;;;;20.00;12.25;;;;;;;20.82;46.23;99961.00;5093767;28;20024;-59
2023/03/22 10:17:05;;;;;;;18.38;12.50;;;;;;;20.54;46.57;99970.09;5092413;28;20074;-57
2023/03/22 10:19:59;;;;;;;21.75;13.93;;;;;;;20.09;46.31;99957.13;5093859;28;20039;-58
2023/03/22 10:22:32;;;;;;;21.23;13.95;;;;;;;20.01;46.99;99962.13;5093967;28;20020;-58
2023/03/22 10:24:59;;;;;;;21.45;13.63;;;;;;;19.87;47.46;99963.06;5093593;28;20032;-58
2023/03/22 10:27:28;;;;;;;20.05;13.93;;;;;;;19.69;47.85;99966.94;5092346;28;20032;-58
2023/03/22 10:30:15;;;;;;;20.58;13.20;;;;;;;19.74;47.70;99959.47;5093539;28;20028;-58
2023/03/22 10:32:43;;;;;;;17.88;12.05;;;;;;;19.86;47.62;99960.47;5093555;28;20472;-59
2023/03/22 10:35:14;;;;;;;19.48;12.98;;;;;;;20.02;47.57;99955.81;5093964;28;20487;-58
2023/03/22 10:37:43;;;;;;;19.40;13.38;;;;;;;20.06;47.30;99952.00;5093501;28;20077;-59
2023/03/22 10:40:17;;;;;;;21.15;12.73;;;;;;;20.21;46.94;99954.59;5092027;28;20448;-58
2023/03/22 10:42:52;;;;;;;20.55;13.27;;;;;;;20.15;47.04;99958.53;5093423;28;20516;-58
2023/03/22 10:45:19;;;;;;;19.70;12.70;;;;;;;20.34;46.55;99955.44;5093962;28;20027;-58
2023/03/22 10:47:53;;;;;;;16.67;10.88;;;;;;;20.41;46.15;99957.59;5092344;28;20479;-58
2023/03/22 10:50:25;;;;;;;15.68;10.98;;;;;;;20.40;46.26;99950.53;5093060;28;20036;-58
2023/03/22 10:53:18;;;;;;;17.13;11.20;;;;;;;20.59;45.59;99936.81;5093461;28;20038;-58
2023/03/22 10:55:44;;;;;;;15.95;10.55;;;;;;;20.64;45.78;99947.16;5087436;28;20047;-58
2023/03/22 10:58:14;;;;;;;17.85;11.23;;;;;;;20.55;45.69;99948.66;5093313;28;20040;-58
2023/03/22 11:01:07;;;;;;;17.75;11.85;;;;;;;20.43;45.83;99953.00;5093211;28;20032;-58
2023/03/22 11:03:47;;;;;;;17.48;11.80;;;;;;;20.46;45.91;99951.91;5093439;28;20050;-59
2023/03/22 11:06:16;;;;;;;17.33;11.65;;;;;;;20.49;46.16;99942.91;5092210;28;20517;-59
2023/03/22 11:08:50;;;;;;;19.15;12.55;;;;;;;20.42;45.80;99943.28;5093150;28;20064;-59
2023/03/22 11:11:28;;;;;;;17.08;12.43;;;;;;;20.27;45.91;99944.34;5092924;28;20028;-58
2023/03/22 11:14:01;;;;;;;18.70;12.52;;;;;;;20.22;46.37;99941.13;5093388;28;20024;-58
2023/03/22 11:16:29;;;;;;;20.75;12.05;;;;;;;20.17;46.33;99937.94;5093333;28;20032;-58
2023/03/22 11:18:56;;;;;;;16.30;10.38;;;;;;;20.17;46.53;99937.94;5093053;28;20476;-58
2023/03/22 11:21:28;;;;;;;15.05;10.57;;;;;;;20.26;46.04;99929.28;5096415;28;20543;-59